Time;durP1;ratioP1;P1;durP2;ratioP2;P2;SDS_P1;SDS_P2;PMS_P1;PMS_P2;Temp;Humidity;BMP_temperature;BMP_pressure;BME280_temperature;BME280_humidity;BME280_pressure;Samples;Min_cycle;Max_cycle;Signal;HPM_P1;HPM_P2
2023/04/15 00:00:39;;;;;;;15.35;7.70;;;9.70;99.90;;;;;;5074529;28;20480;-71
2023/04/15 00:03:05;;;;;;;16.13;7.78;;;9.70;99.90;;;;;;5071451;28;20133;-70
2023/04/15 00:05:31;;;;;;;15.63;8.40;;;9.70;99.90;;;;;;5071093;28;20024;-70
2023/04/15 00:07:57;;;;;;;18.67;8.35;;;9.70;99.90;;;;;;5072112;28;20111;-69
2023/04/15 00:10:23;;;;;;;20.00;8.68;;;9.70;99.90;;;;;;5066738;28;20036;-69
2023/04/15 00:12:49;;;;;;;18.40;9.25;;;9.70;99.90;;;;;;5071916;28;20469;-69
2023/04/15 00:15:16;;;;;;;17.58;8.05;;;9.70;99.90;;;;;;5072869;28;20082;-69
2023/04/15 00:17:41;;;;;;;14.88;7.95;;;9.70;99.90;;;;;;5072060;28;20413;-69
2023/04/15 00:20:07;;;;;;;18.90;7.80;;;9.60;99.90;;;;;;5074711;28;20199;-70
2023/04/15 00:22:33;;;;;;;17.75;8.45;;;9.60;99.90;;;;;;5072517;28;20473;-69
2023/04/15 00:24:59;;;;;;;16.02;8.00;;;9.60;99.90;;;;;;5071626;28;20032;-72
2023/04/15 00:27:24;;;;;;;18.85;7.93;;;9.50;99.90;;;;;;5072163;28;20435;-71
2023/04/15 00:29:50;;;;;;;18.02;8.00;;;9.50;99.90;;;;;;5072151;28;20372;-71
2023/04/15 00:32:15;;;;;;;18.33;7.28;;;9.50;99.90;;;;;;5072521;28;20025;-70
2023/04/15 00:34:41;;;;;;;16.15;7.70;;;9.50;99.90;;;;;;5067998;28;20441;-71
2023/04/15 00:37:08;;;;;;;19.63;7.97;;;9.50;99.90;;;;;;5072554;28;20019;-69
2023/04/15 00:39:34;;;;;;;16.95;6.85;;;9.40;99.90;;;;;;5072608;28;20160;-69
2023/04/15 00:42:00;;;;;;;15.40;7.93;;;9.40;99.90;;;;;;5074861;28;20485;-69
2023/04/15 00:44:26;;;;;;;13.07;7.20;;;9.40;99.90;;;;;;5071441;28;20048;-69
2023/04/15 00:46:51;;;;;;;19.58;7.72;;;9.40;99.90;;;;;;5072159;28;20377;-69
2023/04/15 00:49:18;;;;;;;15.50;7.22;;;9.30;99.90;;;;;;5067682;28;20526;-70
2023/04/15 00:51:44;;;;;;;17.08;7.88;;;9.30;99.90;;;;;;5071379;28;20028;-71
2023/04/15 00:54:10;;;;;;;15.98;7.32;;;9.30;99.90;;;;;;5073673;28;20029;-73
2023/04/15 00:56:37;;;;;;;15.15;7.20;;;9.30;99.90;;;;;;5076211;28;20526;-71
2023/04/15 00:59:05;;;;;;;14.80;7.32;;;9.20;99.90;;;;;;5075411;28;20460;-69
2023/04/15 01:01:31;;;;;;;12.27;6.88;;;9.20;99.90;;;;;;5076296;28;20032;-71
2023/04/15 01:03:57;;;;;;;20.50;7.88;;;9.20;99.90;;;;;;5075941;28;20063;-69
2023/04/15 01:06:23;;;;;;;16.92;7.50;;;9.20;99.90;;;;;;5075845;28;20111;-69
2023/04/15 01:08:49;;;;;;;14.00;7.45;;;9.20;99.90;;;;;;5075473;28;20037;-71
2023/04/15 01:11:16;;;;;;;16.33;7.82;;;9.10;99.90;;;;;;5078049;28;20024;-71
2023/04/15 01:13:41;;;;;;;17.48;7.90;;;9.20;99.90;;;;;;5075722;28;20025;-72
2023/04/15 01:16:08;;;;;;;13.57;7.28;;;9.10;99.90;;;;;;5077613;28;20036;-72
2023/04/15 01:18:37;;;;;;;14.07;7.55;;;9.10;99.90;;;;;;5081088;28;20032;-68
2023/04/15 01:21:04;;;;;;;16.25;7.40;;;9.00;99.90;;;;;;5075336;28;20631;-70
2023/04/15 01:23:31;;;;;;;13.25;7.53;;;9.00;99.90;;;;;;5075713;28;20533;-71
2023/04/15 01:25:58;;;;;;;17.88;8.60;;;8.90;99.90;;;;;;5075218;28;20032;-72
2023/04/15 01:28:24;;;;;;;14.38;7.75;;;8.90;99.90;;;;;;5069442;28;20059;-71
2023/04/15 01:30:50;;;;;;;15.52;7.50;;;8.90;99.90;;;;;;5077569;28;20028;-71
2023/04/15 01:33:15;;;;;;;15.70;8.18;;;8.80;99.90;;;;;;5076039;28;20032;-71
2023/04/15 01:35:43;;;;;;;16.67;8.02;;;8.80;99.90;;;;;;5074805;28;20025;-70
2023/04/15 01:38:10;;;;;;;17.45;8.25;;;8.80;99.90;;;;;;5075091;28;20112;-72
2023/04/15 01:40:36;;;;;;;18.75;7.90;;;8.80;99.90;;;;;;5074504;28;20463;-70
2023/04/15 01:43:02;;;;;;;15.65;7.47;;;8.80;99.90;;;;;;5083166;28;20175;-71
2023/04/15 01:45:28;;;;;;;18.50;7.75;;;8.80;99.90;;;;;;5075578;28;20065;-72
2023/04/15 01:47:54;;;;;;;14.90;6.88;;;8.80;99.90;;;;;;5081722;28;20097;-70
2023/04/15 01:50:20;;;;;;;16.98;7.75;;;8.80;99.90;;;;;;5074965;28;20452;-70
2023/04/15 01:52:47;;;;;;;18.73;7.35;;;8.80;99.90;;;;;;5075530;28;20047;-71
2023/04/15 01:55:13;;;;;;;14.93;6.97;;;8.80;99.90;;;;;;5075024;28;20025;-70
2023/04/15 01:57:39;;;;;;;15.65;7.60;;;8.70;99.90;;;;;;5079414;28;20530;-72
2023/04/15 02:00:06;;;;;;;14.88;7.40;;;8.70;99.90;;;;;;5074833;28;20052;-70
2023/04/15 02:02:33;;;;;;;17.85;7.28;;;8.70;99.90;;;;;;5074815;28;20074;-71
2023/04/15 02:04:58;;;;;;;18.40;7.63;;;8.60;99.90;;;;;;5073694;28;20119;-72
2023/04/15 02:07:24;;;;;;;15.43;7.93;;;8.60;99.90;;;;;;5079796;28;20043;-71
2023/04/15 02:09:50;;;;;;;17.50;7.57;;;8.60;99.90;;;;;;5074552;28;20056;-70
2023/04/15 02:12:15;;;;;;;12.88;7.28;;;8.60;99.90;;;;;;5074659;28;20056;-72
2023/04/15 02:14:41;;;;;;;16.70;7.28;;;8.60;99.90;;;;;;5075071;28;20021;-70
2023/04/15 02:17:07;;;;;;;16.83;7.32;;;8.50;99.90;;;;;;5074116;28;20043;-69
2023/04/15 02:19:34;;;;;;;19.00;7.03;;;8.50;99.90;;;;;;5074980;28;20067;-72
2023/04/15 02:22:01;;;;;;;15.48;7.18;;;8.50;99.90;;;;;;5073603;28;20055;-71
2023/04/15 02:24:27;;;;;;;19.05;7.90;;;8.50;99.90;;;;;;5074941;28;20135;-72
2023/04/15 02:26:53;;;;;;;16.42;7.70;;;8.50;99.90;;;;;;5073699;28;20039;-70
2023/04/15 02:29:18;;;;;;;17.55;7.60;;;8.50;99.90;;;;;;5074564;28;20099;-72
2023/04/15 02:31:44;;;;;;;15.10;6.93;;;8.40;99.90;;;;;;5072266;28;20473;-72
2023/04/15 02:34:10;;;;;;;15.30;7.50;;;8.40;99.90;;;;;;5074273;28;20445;-71
2023/04/15 02:36:35;;;;;;;15.10;7.28;;;8.40;99.90;;;;;;5073174;28;20081;-70
2023/04/15 02:39:03;;;;;;;15.18;7.28;;;8.40;99.90;;;;;;5074351;28;20029;-71
2023/04/15 02:41:29;;;;;;;15.73;7.50;;;8.40;99.90;;;;;;5073282;28;20384;-70
2023/04/15 02:43:55;;;;;;;22.90;8.18;;;8.30;99.90;;;;;;5074143;28;20480;-70
2023/04/15 02:46:21;;;;;;;13.90;7.38;;;8.30;99.90;;;;;;5073418;28;20031;-71
2023/04/15 02:48:48;;;;;;;18.10;7.78;;;8.30;99.90;;;;;;5074284;28;20029;-71
2023/04/15 02:51:18;;;;;;;16.92;7.72;;;8.20;99.90;;;;;;5072808;28;20033;-69
2023/04/15 02:53:45;;;;;;;17.50;7.18;;;8.20;99.90;;;;;;5074161;28;20017;-69
2023/04/15 02:56:11;;;;;;;16.27;7.65;;;8.20;99.90;;;;;;5065888;28;20017;-71
2023/04/15 02:58:38;;;;;;;18.33;7.63;;;8.10;99.90;;;;;;5078055;28;20028;-71
2023/04/15 03:01:03;;;;;;;15.98;7.18;;;8.10;99.90;;;;;;5075604;28;20383;-70
2023/04/15 03:03:29;;;;;;;16.55;7.25;;;8.10;99.90;;;;;;5073251;28;20044;-72
2023/04/15 03:05:55;;;;;;;17.02;7.45;;;8.10;99.90;;;;;;5073424;28;20029;-71
2023/04/15 03:08:21;;;;;;;18.33;8.13;;;8.10;99.90;;;;;;5073460;28;20025;-71
2023/04/15 03:10:48;;;;;;;15.07;7.25;;;8.10;99.90;;;;;;5073835;28;20032;-72
2023/04/15 03:13:13;;;;;;;14.45;6.90;;;8.10;99.90;;;;;;5073459;28;20111;-70
2023/04/15 03:15:39;;;;;;;15.50;7.03;;;8.10;99.90;;;;;;5073778;28;20111;-72
2023/04/15 03:18:04;;;;;;;17.65;7.55;;;8.00;99.90;;;;;;5073382;28;20399;-70
2023/04/15 03:20:30;;;;;;;20.85;7.75;;;8.10;99.90;;;;;;5075698;28;20032;-72
2023/04/15 03:22:56;;;;;;;13.18;7.47;;;8.10;99.90;;;;;;5074213;28;20047;-70
2023/04/15 03:25:21;;;;;;;14.70;7.07;;;8.00;99.90;;;;;;5073616;28;20028;-70
2023/04/15 03:27:47;;;;;;;16.20;8.10;;;8.00;99.90;;;;;;5074975;28;20480;-71
2023/04/15 03:30:12;;;;;;;15.50;7.05;;;8.00;99.90;;;;;;5073256;28;20017;-69
2023/04/15 03:32:38;;;;;;;16.65;7.63;;;8.00;99.90;;;;;;5072221;28;20078;-71
2023/04/15 03:35:05;;;;;;;15.95;7.97;;;8.00;99.90;;;;;;5072121;28;20104;-70
2023/04/15 03:37:31;;;;;;;16.58;8.05;;;8.00;99.90;;;;;;5072604;28;20042;-69
2023/04/15 03:39:56;;;;;;;17.80;7.80;;;8.00;99.90;;;;;;5071351;28;20456;-68
2023/04/15 03:42:22;;;;;;;15.68;7.72;;;8.00;99.90;;;;;;5069905;28;20040;-69
2023/04/15 03:44:47;;;;;;;14.13;6.93;;;8.10;99.90;;;;;;5073060;28;20021;-69
2023/04/15 03:47:13;;;;;;;17.80;7.18;;;8.10;99.90;;;;;;5072782;28;20492;-68
2023/04/15 03:49:38;;;;;;;16.23;7.32;;;8.10;99.90;;;;;;5072374;28;20531;-69
2023/04/15 03:52:04;;;;;;;15.13;7.03;;;8.20;99.90;;;;;;5069085;28;20589;-69
2023/04/15 03:54:30;;;;;;;17.05;7.47;;;8.20;99.90;;;;;;5069313;28;20211;-69
2023/04/15 03:56:56;;;;;;;16.98;7.57;;;8.20;99.90;;;;;;5072267;28;20119;-71
2023/04/15 03:59:22;;;;;;;17.58;7.72;;;8.20;99.90;;;;;;5072158;28;20029;-71
2023/04/15 04:01:48;;;;;;;16.55;7.78;;;8.20;99.90;;;;;;5074018;28;20036;-71
2023/04/15 04:04:14;;;;;;;15.48;7.53;;;8.20;99.90;;;;;;5071447;28;20028;-71
2023/04/15 04:06:39;;;;;;;17.52;7.38;;;8.20;99.90;;;;;;5073037;28;20028;-69
2023/04/15 04:09:05;;;;;;;18.85;7.85;;;8.20;99.90;;;;;;5066629;28;20029;-70
2023/04/15 04:11:31;;;;;;;16.88;6.95;;;8.20;99.90;;;;;;5070023;28;20032;-70
2023/04/15 04:13:57;;;;;;;16.02;7.28;;;8.20;99.90;;;;;;5069190;28;20032;-71
2023/04/15 04:16:23;;;;;;;17.90;8.27;;;8.20;99.90;;;;;;5074034;28;20107;-69
2023/04/15 04:18:48;;;;;;;17.17;8.23;;;8.20;99.90;;;;;;5071543;28;20241;-71
2023/04/15 04:21:14;;;;;;;19.70;7.97;;;8.20;99.90;;;;;;5066149;28;20036;-69
2023/04/15 04:23:40;;;;;;;19.48;8.55;;;8.20;99.90;;;;;;5068596;28;20047;-70
2023/04/15 04:26:06;;;;;;;19.13;8.20;;;8.10;99.90;;;;;;5065760;28;20453;-71
2023/04/15 04:28:31;;;;;;;20.08;8.55;;;8.10;99.90;;;;;;5068774;28;20170;-69
2023/04/15 04:30:57;;;;;;;17.42;8.27;;;8.10;99.90;;;;;;5071016;28;20343;-70
2023/04/15 04:33:23;;;;;;;16.08;7.82;;;8.10;99.90;;;;;;5071845;28;20150;-70
2023/04/15 04:35:48;;;;;;;20.13;8.85;;;8.10;99.90;;;;;;5072663;28;20484;-70
2023/04/15 04:38:14;;;;;;;18.00;8.55;;;8.00;99.90;;;;;;5071127;28;20499;-71
2023/04/15 04:40:40;;;;;;;19.25;8.65;;;8.00;99.90;;;;;;5064936;28;20075;-71
2023/04/15 04:43:05;;;;;;;18.90;9.57;;;8.00;99.90;;;;;;5072594;28;20029;-71
2023/04/15 04:45:31;;;;;;;22.02;9.45;;;7.90;99.90;;;;;;5072178;28;20463;-71
2023/04/15 04:47:56;;;;;;;19.13;9.38;;;7.90;99.90;;;;;;5073293;28;20029;-72
2023/04/15 04:50:22;;;;;;;22.40;10.25;;;7.90;99.90;;;;;;5072029;28;20029;-69
2023/04/15 04:52:47;;;;;;;20.67;10.68;;;7.90;99.90;;;;;;5072279;28;20055;-69
2023/04/15 04:55:13;;;;;;;20.20;9.80;;;7.90;99.90;;;;;;5068691;28;20028;-70
2023/04/15 04:57:38;;;;;;;24.50;10.18;;;7.90;99.90;;;;;;5066715;28;20044;-69
2023/04/15 05:00:07;;;;;;;22.48;11.02;;;7.90;99.90;;;;;;5071701;28;20025;-70
2023/04/15 05:02:32;;;;;;;21.30;10.23;;;7.90;99.90;;;;;;5072074;28;20036;-70
2023/04/15 05:04:58;;;;;;;21.67;10.70;;;7.90;99.90;;;;;;5061741;28;20048;-70
2023/04/15 05:07:23;;;;;;;20.35;11.57;;;7.80;99.90;;;;;;5071815;28;20082;-70
2023/04/15 05:09:49;;;;;;;25.25;11.88;;;7.90;99.90;;;;;;5068769;28;20404;-71
2023/04/15 05:12:15;;;;;;;21.45;10.57;;;7.90;99.90;;;;;;5070883;28;20119;-69
2023/04/15 05:14:41;;;;;;;21.58;11.30;;;7.90;99.90;;;;;;5079615;28;20020;-70
2023/04/15 05:17:08;;;;;;;22.15;11.65;;;7.90;99.90;;;;;;5060629;28;20387;-69
2023/04/15 05:19:33;;;;;;;22.92;12.70;;;7.90;99.90;;;;;;5071675;28;20052;-70
2023/04/15 05:21:59;;;;;;;23.10;11.98;;;7.90;99.90;;;;;;5080819;28;20408;-70
2023/04/15 05:24:26;;;;;;;24.88;12.65;;;7.90;99.90;;;;;;5073371;28;20114;-69
2023/04/15 05:26:51;;;;;;;25.13;12.75;;;8.00;99.90;;;;;;5070822;28;20472;-70
2023/04/15 05:29:17;;;;;;;21.75;12.00;;;8.00;99.90;;;;;;5071200;28;20037;-69
2023/04/15 05:31:43;;;;;;;23.15;11.70;;;8.00;99.90;;;;;;5064339;28;20028;-69
2023/04/15 05:34:09;;;;;;;21.20;11.27;;;8.00;99.90;;;;;;5070721;28;20028;-70
2023/04/15 05:36:34;;;;;;;24.77;12.27;;;8.10;99.90;;;;;;5071163;28;20044;-69
2023/04/15 05:39:00;;;;;;;28.33;11.68;;;8.10;99.90;;;;;;5071516;28;20101;-71
2023/04/15 05:41:26;;;;;;;25.92;12.57;;;8.20;99.90;;;;;;5080662;28;20048;-69
2023/04/15 05:43:51;;;;;;;26.25;12.93;;;8.20;99.90;;;;;;5077914;28;20036;-69
2023/04/15 05:46:17;;;;;;;26.40;12.70;;;8.30;99.90;;;;;;5076623;28;20469;-69
2023/04/15 05:48:42;;;;;;;23.63;12.50;;;8.30;99.90;;;;;;5075575;28;20373;-70
2023/04/15 05:51:08;;;;;;;23.70;10.95;;;8.40;99.90;;;;;;5075011;28;20537;-70
2023/04/15 05:53:34;;;;;;;24.17;12.50;;;8.50;99.90;;;;;;5074996;28;20024;-71
2023/04/15 05:56:00;;;;;;;23.90;11.95;;;8.50;99.90;;;;;;5074342;28;20028;-71
2023/04/15 05:58:26;;;;;;;24.02;10.88;;;8.60;99.90;;;;;;5075480;28;20039;-70
2023/04/15 06:00:51;;;;;;;21.95;10.93;;;8.70;99.90;;;;;;5074382;28;20443;-71
2023/04/15 06:03:17;;;;;;;23.73;11.30;;;8.70;99.90;;;;;;5074994;28;20397;-70
2023/04/15 06:05:43;;;;;;;21.27;9.68;;;8.80;99.90;;;;;;5074781;28;20070;-71
2023/04/15 06:08:10;;;;;;;24.13;12.30;;;8.90;99.90;;;;;;5075221;28;20036;-70
2023/04/15 06:10:36;;;;;;;24.75;11.32;;;9.00;99.90;;;;;;5083227;28;20028;-71
2023/04/15 06:13:03;;;;;;;21.20;10.05;;;9.10;99.90;;;;;;5074845;28;20036;-70
2023/04/15 06:15:29;;;;;;;19.23;10.20;;;9.20;99.90;;;;;;5074239;28;20086;-70
2023/04/15 06:17:55;;;;;;;26.52;11.43;;;9.30;99.90;;;;;;5075136;28;20146;-69
2023/04/15 06:20:20;;;;;;;21.65;10.18;;;9.40;99.90;;;;;;5073652;28;20437;-71
2023/04/15 06:22:46;;;;;;;20.83;10.07;;;9.50;99.90;;;;;;5074465;28;20588;-70
2023/04/15 06:25:12;;;;;;;18.17;9.55;;;9.60;99.90;;;;;;5074632;28;20069;-69
2023/04/15 06:27:37;;;;;;;18.98;10.10;;;9.70;99.90;;;;;;5080493;28;20079;-70
2023/04/15 06:30:03;;;;;;;18.75;9.25;;;9.80;99.90;;;;;;5073442;28;20041;-70
2023/04/15 06:32:29;;;;;;;18.48;8.60;;;9.90;99.90;;;;;;5087403;28;20058;-70
2023/04/15 06:34:55;;;;;;;19.75;9.25;;;10.10;99.90;;;;;;5074874;28;20468;-71
2023/04/15 06:37:21;;;;;;;20.05;8.98;;;10.20;99.90;;;;;;5074305;28;20036;-70
2023/04/15 06:39:46;;;;;;;18.85;9.55;;;10.30;99.90;;;;;;5079673;28;20031;-69
2023/04/15 06:42:12;;;;;;;18.00;8.95;;;10.40;99.90;;;;;;5064580;28;20151;-70
2023/04/15 06:44:38;;;;;;;18.27;8.50;;;10.60;99.90;;;;;;5061753;28;20099;-69
2023/04/15 06:47:04;;;;;;;21.98;10.43;;;10.70;99.90;;;;;;5073369;28;20029;-70
2023/04/15 06:49:29;;;;;;;19.40;8.77;;;10.80;99.90;;;;;;5074769;28;20384;-69
2023/04/15 06:51:55;;;;;;;19.38;8.82;;;11.00;99.90;;;;;;5074823;28;20040;-71
2023/04/15 06:54:21;;;;;;;16.50;8.18;;;11.20;99.90;;;;;;5073591;28;20037;-69
2023/04/15 06:56:46;;;;;;;16.33;8.48;;;11.40;99.90;;;;;;5073696;28;20357;-71
2023/04/15 06:59:13;;;;;;;18.08;8.60;;;11.60;99.90;;;;;;5073786;28;20506;-71
2023/04/15 07:01:40;;;;;;;19.92;9.05;;;11.90;99.90;;;;;;5073795;28;20111;-71
2023/04/15 07:04:06;;;;;;;19.15;9.48;;;12.30;99.90;;;;;;5073953;28;20036;-69
2023/04/15 07:06:32;;;;;;;16.35;8.15;;;12.80;99.90;;;;;;5072536;28;20438;-69
2023/04/15 07:08:58;;;;;;;16.67;8.70;;;13.10;99.90;;;;;;5063344;28;20469;-70
2023/04/15 07:11:25;;;;;;;18.38;9.07;;;13.30;99.90;;;;;;5061007;28;20078;-71
2023/04/15 07:13:51;;;;;;;16.08;7.78;;;13.40;99.90;;;;;;5073078;28;20024;-71
2023/04/15 07:16:17;;;;;;;11.45;6.07;;;13.60;99.90;;;;;;5059488;28;20098;-69
2023/04/15 07:18:42;;;;;;;17.20;7.32;;;13.60;99.90;;;;;;5072502;28;20538;-71
2023/04/15 07:21:08;;;;;;;15.80;6.53;;;13.60;99.90;;;;;;5075721;28;20705;-69
2023/04/15 07:23:34;;;;;;;10.23;5.72;;;13.60;99.90;;;;;;5075625;28;20076;-71
2023/04/15 07:26:00;;;;;;;14.07;6.50;;;13.70;99.90;;;;;;5072732;28;20031;-71
2023/04/15 07:28:26;;;;;;;12.68;5.43;;;13.80;99.90;;;;;;5068156;28;20090;-70
2023/04/15 07:30:51;;;;;;;11.70;5.43;;;13.90;99.90;;;;;;5070679;28;20021;-70
2023/04/15 07:33:17;;;;;;;9.00;5.35;;;14.10;99.90;;;;;;5076369;28;20124;-70
2023/04/15 07:35:43;;;;;;;13.52;5.13;;;14.40;99.90;;;;;;5073264;28;20165;-70
2023/04/15 07:38:11;;;;;;;12.82;5.40;;;14.80;99.90;;;;;;5065840;28;20025;-70
2023/04/15 07:40:38;;;;;;;8.73;4.70;;;15.00;99.90;;;;;;5056207;28;20115;-71
2023/04/15 07:43:04;;;;;;;6.85;3.95;;;15.30;99.90;;;;;;5071129;28;20089;-69
2023/04/15 07:45:30;;;;;;;9.43;3.97;;;15.50;99.90;;;;;;5085094;28;20032;-69
2023/04/15 07:47:55;;;;;;;7.57;4.18;;;15.80;99.90;;;;;;5077495;28;20401;-69
2023/04/15 07:50:21;;;;;;;10.13;4.97;;;16.20;99.90;;;;;;5084297;28;20107;-69
2023/04/15 07:52:48;;;;;;;9.18;4.63;;;16.50;99.90;;;;;;5069431;28;20033;-69
2023/04/15 07:55:15;;;;;;;8.88;4.63;;;17.00;99.20;;;;;;5072526;28;20029;-69
2023/04/15 07:57:41;;;;;;;7.15;4.22;;;17.50;98.60;;;;;;5070030;28;20078;-69
2023/04/15 08:00:07;;;;;;;7.95;4.55;;;18.20;97.30;;;;;;5072434;28;20064;-69
2023/04/15 08:02:33;;;;;;;7.18;3.97;;;18.60;96.60;;;;;;5062620;28;21009;-69
2023/04/15 08:05:01;;;;;;;9.23;4.38;;;19.00;95.80;;;;;;5061544;28;20060;-69
2023/04/15 08:07:27;;;;;;;10.07;4.03;;;19.60;95.40;;;;;;5072228;28;20032;-69
2023/04/15 08:09:52;;;;;;;8.10;4.18;;;20.40;94.20;;;;;;5076721;28;20039;-69
2023/04/15 08:12:18;;;;;;;7.88;4.25;;;20.80;93.10;;;;;;5077901;28;20033;-69
2023/04/15 08:14:44;;;;;;;7.70;3.90;;;21.10;92.50;;;;;;5068813;28;20361;-69
2023/04/15 08:17:10;;;;;;;8.68;3.92;;;20.90;92.00;;;;;;5068577;28;20418;-69
2023/04/15 08:19:35;;;;;;;7.85;4.20;;;20.80;92.00;;;;;;5070199;28;20036;-69
2023/04/15 08:22:01;;;;;;;7.10;4.05;;;20.90;92.00;;;;;;5070528;28;20036;-70
2023/04/15 08:24:27;;;;;;;6.82;3.63;;;21.30;91.40;;;;;;5069625;28;20024;-70
2023/04/15 08:26:53;;;;;;;6.80;3.67;;;21.50;91.00;;;;;;5071087;28;20043;-70
2023/04/15 08:29:18;;;;;;;7.75;4.40;;;21.90;90.30;;;;;;5071540;28;20115;-70
2023/04/15 08:31:44;;;;;;;8.38;4.57;;;21.80;90.20;;;;;;5061159;28;20103;-70
2023/04/15 08:34:13;;;;;;;10.35;5.05;;;21.60;90.20;;;;;;5066975;28;20447;-70
2023/04/15 08:36:38;;;;;;;9.95;4.68;;;21.60;90.30;;;;;;5071545;28;20503;-72
2023/04/15 08:39:04;;;;;;;10.63;4.40;;;21.90;89.70;;;;;;5066571;28;20061;-71
2023/04/15 08:41:47;;;;;;;9.20;4.30;;;22.20;88.10;;;;;;5063452;28;20048;-71
2023/04/15 08:44:13;;;;;;;9.38;4.65;;;22.40;87.30;;;;;;5067233;28;20036;-69
2023/04/15 08:46:41;;;;;;;10.82;4.85;;;22.50;86.80;;;;;;5066099;28;20039;-71
2023/04/15 08:49:13;;;;;;;10.10;4.93;;;22.40;86.60;;;;;;5070339;28;20024;-70
2023/04/15 08:51:39;;;;;;;;;;;22.20;86.40;;;;;;5071790;28;20370;-69
2023/04/15 08:54:05;;;;;;;9.10;5.20;;;22.20;87.10;;;;;;5067963;28;19908;-71
2023/04/15 08:56:32;;;;;;;9.65;4.68;;;22.40;86.20;;;;;;5072071;28;20116;-70
2023/04/15 08:58:59;;;;;;;7.95;4.05;;;22.60;86.40;;;;;;5084383;28;20059;-71
2023/04/15 09:01:25;;;;;;;7.75;4.53;;;22.90;85.10;;;;;;5062864;28;20568;-71
2023/04/15 09:03:53;;;;;;;7.88;4.13;;;23.20;85.60;;;;;;5060628;28;20041;-69
2023/04/15 09:06:20;;;;;;;6.18;4.07;;;23.30;83.10;;;;;;5071447;28;20029;-71
2023/04/15 09:08:46;;;;;;;6.20;3.63;;;23.40;83.70;;;;;;5074144;28;20039;-71
2023/04/15 09:11:12;;;;;;;7.63;3.58;;;23.40;83.10;;;;;;5069555;28;20024;-71
2023/04/15 09:13:38;;;;;;;7.28;3.92;;;23.50;83.10;;;;;;5070521;28;20020;-71
2023/04/15 09:16:05;;;;;;;5.45;3.45;;;23.60;83.00;;;;;;5062257;28;20056;-72
2023/04/15 09:18:36;;;;;;;8.30;4.00;;;23.90;81.60;;;;;;5073801;28;20032;-71
2023/04/15 09:21:41;;;;;;;;;;;;;;;;;;;;;
2023/04/15 09:24:10;;;;;;;8.30;3.20;;;23.20;80.30;;;;;;5021911;28;20064;-71
2023/04/15 09:26:41;;;;;;;5.07;2.10;;;22.80;80.40;;;;;;5071609;28;20534;-70
2023/04/15 09:29:17;;;;;;;;;;;22.50;80.20;;;;;;5069560;28;20128;-72
2023/04/15 09:31:54;;;;;;;7.32;2.85;;;22.40;80.90;;;;;;5070793;28;20417;-72
2023/04/15 09:34:36;;;;;;;8.05;2.72;;;22.50;80.70;;;;;;5074952;28;20025;-71
2023/04/15 09:37:19;;;;;;;7.22;2.72;;;22.30;80.90;;;;;;5073635;28;20029;-72
2023/04/15 09:39:58;;;;;;;;;;;;;;;;;;;;;
2023/04/15 09:42:34;;;;;;;5.45;3.00;;;22.20;82.40;;;;;;5073163;28;20039;-70
2023/04/15 09:45:20;;;;;;;5.05;2.90;;;22.60;81.80;;;;;;5072969;28;20055;-72
2023/04/15 09:47:46;;;;;;;4.75;2.70;;;22.20;82.30;;;;;;5070451;28;20546;-71
2023/04/15 09:50:17;;;;;;;4.40;2.67;;;21.80;83.10;;;;;;5079771;28;20029;-70
2023/04/15 09:52:45;;;;;;;8.00;3.25;;;21.70;83.30;;;;;;5071954;28;20029;-70
2023/04/15 09:55:16;;;;;;;10.05;2.70;;;21.90;83.20;;;;;;5074911;28;20105;-72
2023/04/15 09:57:48;;;;;;;4.47;2.80;;;22.30;81.90;;;;;;5075065;28;20021;-70
2023/04/15 10:00:19;;;;;;;10.95;3.55;;;22.30;82.00;;;;;;5077116;28;20016;-70
2023/04/15 10:02:47;;;;;;;6.00;2.80;;;22.10;83.10;;;;;;5074433;28;20169;-72
2023/04/15 10:05:26;;;;;;;6.90;3.42;;;22.60;82.70;;;;;;5069072;28;20468;-72
2023/04/15 10:07:56;;;;;;;7.60;3.40;;;23.40;81.40;;;;;;5065729;28;20329;-72
2023/04/15 10:10:27;;;;;;;5.43;2.95;;;23.50;80.40;;;;;;5075638;28;20017;-71
2023/04/15 10:13:02;;;;;;;5.90;3.08;;;23.50;80.20;;;;;;5075046;28;21472;-69
2023/04/15 10:16:06;;;;;;;8.27;3.58;;;23.40;80.60;;;;;;5075406;28;20489;-70
2023/04/15 10:18:36;;;;;;;5.38;3.25;;;22.80;81.20;;;;;;5083256;28;20044;-73
2023/04/15 10:21:17;;;;;;;6.45;3.10;;;22.50;82.20;;;;;;5063472;28;20119;-72
2023/04/15 10:23:46;;;;;;;5.97;3.85;;;23.10;81.30;;;;;;5069176;28;20539;-71
2023/04/15 10:26:13;;;;;;;4.35;2.55;;;22.90;80.50;;;;;;5075029;28;20025;-72
2023/04/15 10:28:48;;;;;;;8.68;2.90;;;22.40;81.70;;;;;;5070999;28;20381;-70
2023/04/15 10:31:23;;;;;;;6.45;3.13;;;22.40;81.70;;;;;;5065513;28;20070;-71
2023/04/15 10:33:57;;;;;;;6.85;3.08;;;22.70;81.70;;;;;;5066080;28;20033;-72
2023/04/15 10:36:27;;;;;;;7.43;3.65;;;23.40;80.70;;;;;;5071796;28;20025;-72
2023/04/15 10:38:58;;;;;;;6.85;3.35;;;23.90;79.60;;;;;;5056221;28;20008;-72
2023/04/15 10:41:39;;;;;;;9.13;3.80;;;23.90;79.50;;;;;;5070737;28;20029;-70
2023/04/15 10:44:16;;;;;;;8.30;3.30;;;23.90;78.90;;;;;;5067897;28;20040;-72
2023/04/15 10:46:44;;;;;;;6.47;3.40;;;23.60;78.60;;;;;;5069718;28;20029;-71
2023/04/15 10:49:20;;;;;;;6.13;3.10;;;23.30;79.90;;;;;;5071205;28;20028;-70
2023/04/15 10:52:03;;;;;;;8.02;3.33;;;23.50;80.40;;;;;;5068041;28;20029;-71
2023/04/15 10:54:38;;;;;;;5.63;3.20;;;23.30;80.60;;;;;;5071088;28;20123;-72
2023/04/15 10:57:04;;;;;;;6.25;2.95;;;22.50;80.00;;;;;;5067349;28;20077;-70
2023/04/15 10:59:31;;;;;;;9.40;4.00;;;21.80;81.50;;;;;;5064969;28;20033;-70
2023/04/15 11:02:02;;;;;;;6.15;3.10;;;21.70;82.30;;;;;;5062362;28;20020;-71
2023/04/15 11:05:04;;;;;;;4.63;2.65;;;21.90;82.20;;;;;;5071699;28;20035;-70
2023/04/15 11:07:50;;;;;;;6.38;3.00;;;22.10;81.70;;;;;;5070672;28;20111;-70
2023/04/15 11:10:24;;;;;;;3.35;2.05;;;22.20;81.50;;;;;;5073204;28;20045;-72
2023/04/15 11:12:57;;;;;;;4.45;2.58;;;22.60;80.50;;;;;;5061447;28;20825;-71
2023/04/15 11:15:32;;;;;;;6.72;2.78;;;22.50;81.00;;;;;;5071380;28;20037;-69
2023/04/15 11:18:17;;;;;;;5.22;2.20;;;22.40;81.20;;;;;;5071019;28;20024;-73
2023/04/15 11:20:53;;;;;;;3.88;2.35;;;22.50;81.00;;;;;;5058046;28;20525;-71
2023/04/15 11:23:26;;;;;;;5.18;2.33;;;22.50;81.10;;;;;;5070285;28;20128;-72
2023/04/15 11:25:58;;;;;;;2.08;1.50;;;22.30;80.90;;;;;;5067182;28;20028;-72
2023/04/15 11:28:33;;;;;;;5.45;2.08;;;22.10;79.80;;;;;;5067799;28;20044;-71
2023/04/15 11:31:05;;;;;;;3.90;1.75;;;21.80;80.20;;;;;;5071578;28;20032;-70
2023/04/15 11:33:31;;;;;;;4.03;1.88;;;22.00;79.60;;;;;;5070998;28;20039;-71
2023/04/15 11:35:57;;;;;;;3.53;2.10;;;22.10;79.70;;;;;;5072923;28;20111;-71
2023/04/15 11:38:23;;;;;;;4.63;2.50;;;22.30;79.70;;;;;;5063218;28;20039;-70
2023/04/15 11:41:05;;;;;;;6.72;2.13;;;22.60;80.20;;;;;;5066804;28;20119;-74
2023/04/15 11:43:43;;;;;;;5.82;2.00;;;22.60;81.20;;;;;;5065130;28;20033;-71
2023/04/15 11:46:09;;;;;;;3.45;1.25;;;22.50;80.60;;;;;;5061929;28;20024;-71
2023/04/15 11:48:35;;;;;;;3.17;1.90;;;22.10;79.90;;;;;;5066103;28;20123;-71
2023/04/15 11:51:06;;;;;;;3.92;2.03;;;21.70;80.50;;;;;;5070734;28;20040;-73
2023/04/15 11:53:42;;;;;;;5.25;1.88;;;21.80;81.40;;;;;;5065812;28;20029;-71
2023/04/15 11:56:10;;;;;;;2.72;1.83;;;21.80;81.70;;;;;;5060053;28;20491;-71
2023/04/15 11:58:39;;;;;;;5.47;1.80;;;21.20;81.40;;;;;;5066795;28;20492;-69
2023/04/15 12:01:06;;;;;;;3.75;1.90;;;20.40;82.30;;;;;;5071372;28;20032;-71
2023/04/15 12:03:43;;;;;;;4.40;2.17;;;19.60;83.40;;;;;;5077522;28;20044;-71
2023/04/15 12:06:22;;;;;;;2.40;1.52;;;19.60;84.20;;;;;;5068967;28;20377;-70
2023/04/15 12:08:50;;;;;;;4.43;1.80;;;19.50;84.50;;;;;;5070169;28;20031;-71
2023/04/15 12:11:16;;;;;;;2.95;1.70;;;19.30;85.40;;;;;;5066349;28;20391;-69
2023/04/15 12:13:47;;;;;;;5.78;2.72;;;19.10;85.50;;;;;;5068040;28;20124;-73
2023/04/15 12:16:17;;;;;;;5.73;1.97;;;18.70;86.50;;;;;;5065150;28;20086;-71
2023/04/15 12:18:57;;;;;;;4.40;1.98;;;18.60;85.60;;;;;;5060121;28;20021;-74
2023/04/15 12:21:28;;;;;;;5.55;1.95;;;18.50;86.70;;;;;;5072433;28;20058;-72
2023/04/15 12:23:54;;;;;;;6.25;1.90;;;18.80;87.80;;;;;;5065783;28;20066;-70
2023/04/15 12:26:28;;;;;;;4.53;2.00;;;19.20;87.30;;;;;;5066047;28;20025;-71
2023/04/15 12:29:17;;;;;;;3.15;1.90;;;19.40;86.40;;;;;;5067215;28;20040;-72
2023/04/15 12:31:49;;;;;;;5.25;1.58;;;19.70;84.30;;;;;;5068805;28;20032;-71
2023/04/15 12:34:15;;;;;;;3.70;1.83;;;20.30;83.20;;;;;;5070135;28;20028;-70
2023/04/15 12:36:41;;;;;;;5.75;1.95;;;20.60;81.80;;;;;;5061812;28;20033;-73
2023/04/15 12:39:07;;;;;;;4.30;2.00;;;20.50;82.70;;;;;;5068648;28;20444;-71
2023/04/15 12:41:33;;;;;;;6.13;1.80;;;20.00;84.10;;;;;;5070916;28;20127;-72
2023/04/15 12:44:00;;;;;;;8.15;2.88;;;19.60;84.90;;;;;;5070157;28;20120;-71
2023/04/15 12:46:25;;;;;;;3.70;1.70;;;18.90;86.60;;;;;;5071516;28;20046;-71
2023/04/15 12:48:54;;;;;;;6.38;2.58;;;18.80;86.30;;;;;;5059603;28;20473;-73
2023/04/15 12:51:22;;;;;;;5.40;2.35;;;18.60;86.50;;;;;;5076080;28;20111;-74